Formations.

Quelques informations.

Fly & Fun et ses instructeurs disposent d’une école de pilotage, agréée par l’aviation civile (ATO FR 0147).

Rejoignez-nous afin de suivre le programme de formation, soit dans le cadre du cursus complet pour la délivrance d’une qualification de type, soit pour un module adapté de quelques heures d’instruction.

Notre équipe d’anciens pilotes militaires est là pour vous faire découvrir le monde de l’aviation de chasse.

Autres prestations.

Vol en L39.
Évènement client.
METAR :

LFQA 020500Z AUTO 11009KT 9999 OVC021 05/04 Q1000


vue en direct sur l'aérodrome
facturation mentions légales politique de confidentialité
Cochet Concept
cx